sensor_id;sensor_type;location;lat;lon;timestamp;pressure;altitude;pressure_sealevel;temperature;humidity
76229;BME280;65021;53.174;18.160;2024-01-10T00:01:10;102944.84;;;-6.02;73.93
76229;BME280;65021;53.174;18.160;2024-01-10T00:03:45;102939.39;;;-5.97;73.87
76229;BME280;65021;53.174;18.160;2024-01-10T00:06:12;102934.50;;;-5.94;73.70
76229;BME280;65021;53.174;18.160;2024-01-10T00:08:38;102934.86;;;-5.91;73.79
76229;BME280;65021;53.174;18.160;2024-01-10T00:11:05;102932.02;;;-5.88;73.93
76229;BME280;65021;53.174;18.160;2024-01-10T00:13:32;102930.02;;;-5.85;74.00
76229;BME280;65021;53.174;18.160;2024-01-10T00:15:59;102930.38;;;-5.83;74.08
76229;BME280;65021;53.174;18.160;2024-01-10T00:18:26;102918.14;;;-5.80;74.00
76229;BME280;65021;53.174;18.160;2024-01-10T00:20:52;102912.75;;;-5.77;74.24
76229;BME280;65021;53.174;18.160;2024-01-10T00:23:22;102906.33;;;-5.76;74.56
76229;BME280;65021;53.174;18.160;2024-01-10T00:25:49;102902.06;;;-5.75;74.57
76229;BME280;65021;53.174;18.160;2024-01-10T00:28:15;102903.40;;;-5.75;74.84
76229;BME280;65021;53.174;18.160;2024-01-10T00:30:45;102901.20;;;-5.75;74.76
76229;BME280;65021;53.174;18.160;2024-01-10T00:33:14;102900.48;;;-5.74;74.75
76229;BME280;65021;53.174;18.160;2024-01-10T00:35:41;102896.89;;;-5.73;74.78
76229;BME280;65021;53.174;18.160;2024-01-10T00:38:08;102894.68;;;-5.72;74.88
76229;BME280;65021;53.174;18.160;2024-01-10T00:40:35;102888.01;;;-5.73;74.85
76229;BME280;65021;53.174;18.160;2024-01-10T00:43:02;102887.95;;;-5.72;74.98
76229;BME280;65021;53.174;18.160;2024-01-10T00:45:30;102881.73;;;-5.72;74.95
76229;BME280;65021;53.174;18.160;2024-01-10T00:47:57;102881.34;;;-5.71;74.89
76229;BME280;65021;53.174;18.160;2024-01-10T00:50:24;102881.23;;;-5.69;74.95
76229;BME280;65021;53.174;18.160;2024-01-10T00:52:50;102884.57;;;-5.68;75.12
76229;BME280;65021;53.174;18.160;2024-01-10T00:55:17;102885.95;;;-5.69;74.98
76229;BME280;65021;53.174;18.160;2024-01-10T00:57:43;102888.80;;;-5.69;75.13
76229;BME280;65021;53.174;18.160;2024-01-10T01:00:11;102890.98;;;-5.69;75.20
76229;BME280;65021;53.174;18.160;2024-01-10T01:02:37;102892.17;;;-5.69;75.41
76229;BME280;65021;53.174;18.160;2024-01-10T01:05:07;102894.68;;;-5.70;75.42
76229;BME280;65021;53.174;18.160;2024-01-10T01:07:36;102895.77;;;-5.68;75.31
76229;BME280;65021;53.174;18.160;2024-01-10T01:10:03;102893.00;;;-5.66;75.08
76229;BME280;65021;53.174;18.160;2024-01-10T01:12:30;102893.83;;;-5.66;75.23
76229;BME280;65021;53.174;18.160;2024-01-10T01:14:56;102886.51;;;-5.64;75.39
76229;BME280;65021;53.174;18.160;2024-01-10T01:17:23;102885.38;;;-5.62;74.97
76229;BME280;65021;53.174;18.160;2024-01-10T01:19:50;102886.60;;;-5.60;75.21
76229;BME280;65021;53.174;18.160;2024-01-10T01:22:16;102891.34;;;-5.57;75.40
76229;BME280;65021;53.174;18.160;2024-01-10T01:24:43;102888.83;;;-5.55;75.39
76229;BME280;65021;53.174;18.160;2024-01-10T01:27:10;102884.81;;;-5.52;75.11
76229;BME280;65021;53.174;18.160;2024-01-10T01:29:37;102882.24;;;-5.51;75.34
76229;BME280;65021;53.174;18.160;2024-01-10T01:32:03;102878.48;;;-5.50;75.16
76229;BME280;65021;53.174;18.160;2024-01-10T01:34:30;102876.59;;;-5.49;75.24
76229;BME280;65021;53.174;18.160;2024-01-10T01:36:57;102878.09;;;-5.49;75.25
76229;BME280;65021;53.174;18.160;2024-01-10T01:39:24;102880.05;;;-5.48;75.30
76229;BME280;65021;53.174;18.160;2024-01-10T01:41:50;102876.98;;;-5.47;75.82
76229;BME280;65021;53.174;18.160;2024-01-10T01:44:17;102878.30;;;-5.47;75.50
76229;BME280;65021;53.174;18.160;2024-01-10T01:46:44;102872.58;;;-5.47;75.81
76229;BME280;65021;53.174;18.160;2024-01-10T01:49:12;102868.18;;;-5.46;75.64
76229;BME280;65021;53.174;18.160;2024-01-10T01:51:39;102862.60;;;-5.45;75.88
76229;BME280;65021;53.174;18.160;2024-01-10T01:54:07;102863.54;;;-5.44;75.89
76229;BME280;65021;53.174;18.160;2024-01-10T01:56:38;102861.27;;;-5.43;76.11
76229;BME280;65021;53.174;18.160;2024-01-10T01:59:05;102851.56;;;-5.40;76.17
76229;BME280;65021;53.174;18.160;2024-01-10T02:01:32;102848.45;;;-5.39;76.06
76229;BME280;65021;53.174;18.160;2024-01-10T02:04:01;102842.99;;;-5.37;76.44
76229;BME280;65021;53.174;18.160;2024-01-10T02:06:27;102836.77;;;-5.37;76.02
76229;BME280;65021;53.174;18.160;2024-01-10T02:08:56;102832.57;;;-5.37;76.12
76229;BME280;65021;53.174;18.160;2024-01-10T02:11:24;102831.71;;;-5.37;76.22
76229;BME280;65021;53.174;18.160;2024-01-10T02:13:52;102832.90;;;-5.37;76.07
76229;BME280;65021;53.174;18.160;2024-01-10T02:16:21;102832.86;;;-5.37;76.29
76229;BME280;65021;53.174;18.160;2024-01-10T02:18:49;102832.59;;;-5.34;76.25
76229;BME280;65021;53.174;18.160;2024-01-10T02:21:20;102832.14;;;-5.33;76.36
76229;BME280;65021;53.174;18.160;2024-01-10T02:23:48;102834.23;;;-5.31;76.07
76229;BME280;65021;53.174;18.160;2024-01-10T02:26:15;102833.79;;;-5.29;76.59
76229;BME280;65021;53.174;18.160;2024-01-10T02:28:41;102834.33;;;-5.27;76.55
76229;BME280;65021;53.174;18.160;2024-01-10T02:31:08;102834.69;;;-5.24;76.22
76229;BME280;65021;53.174;18.160;2024-01-10T02:33:35;102833.90;;;-5.23;76.51
76229;BME280;65021;53.174;18.160;2024-01-10T02:36:02;102838.63;;;-5.20;76.85
76229;BME280;65021;53.174;18.160;2024-01-10T02:38:29;102841.71;;;-5.18;76.92
76229;BME280;65021;53.174;18.160;2024-01-10T02:40:56;102850.71;;;-5.17;76.65
76229;BME280;65021;53.174;18.160;2024-01-10T02:43:26;102855.02;;;-5.16;76.82
76229;BME280;65021;53.174;18.160;2024-01-10T02:45:59;102852.14;;;-5.16;76.76
76229;BME280;65021;53.174;18.160;2024-01-10T02:48:26;102850.24;;;-5.14;76.85
76229;BME280;65021;53.174;18.160;2024-01-10T02:50:52;102845.45;;;-5.13;76.65
76229;BME280;65021;53.174;18.160;2024-01-10T02:53:20;102844.34;;;-5.11;76.83
76229;BME280;65021;53.174;18.160;2024-01-10T02:55:47;102846.03;;;-5.09;76.79
76229;BME280;65021;53.174;18.160;2024-01-10T02:58:15;102845.90;;;-5.07;76.69
76229;BME280;65021;53.174;18.160;2024-01-10T03:00:42;102832.23;;;-5.06;76.92
76229;BME280;65021;53.174;18.160;2024-01-10T03:03:08;102834.38;;;-5.05;76.96
76229;BME280;65021;53.174;18.160;2024-01-10T03:05:35;102839.34;;;-5.04;76.79
76229;BME280;65021;53.174;18.160;2024-01-10T03:08:01;102840.99;;;-5.03;77.06
76229;BME280;65021;53.174;18.160;2024-01-10T03:10:28;102834.86;;;-5.02;76.99
76229;BME280;65021;53.174;18.160;2024-01-10T03:12:55;102830.05;;;-5.00;77.14
76229;BME280;65021;53.174;18.160;2024-01-10T03:15:21;102833.76;;;-4.97;77.07
76229;BME280;65021;53.174;18.160;2024-01-10T03:17:48;102829.56;;;-4.95;77.04
76229;BME280;65021;53.174;18.160;2024-01-10T03:20:15;102831.41;;;-4.92;76.85
76229;BME280;65021;53.174;18.160;2024-01-10T03:22:41;102829.66;;;-4.91;77.05
76229;BME280;65021;53.174;18.160;2024-01-10T03:25:08;102827.75;;;-4.90;77.35
76229;BME280;65021;53.174;18.160;2024-01-10T03:27:34;102827.48;;;-4.88;77.27
76229;BME280;65021;53.174;18.160;2024-01-10T03:30:01;102824.41;;;-4.87;77.41
76229;BME280;65021;53.174;18.160;2024-01-10T03:32:28;102815.71;;;-4.85;77.20
76229;BME280;65021;53.174;18.160;2024-01-10T03:34:54;102811.66;;;-4.82;77.44
76229;BME280;65021;53.174;18.160;2024-01-10T03:37:21;102807.10;;;-4.79;77.27
76229;BME280;65021;53.174;18.160;2024-01-10T03:39:47;102806.15;;;-4.77;77.31
76229;BME280;65021;53.174;18.160;2024-01-10T03:42:14;102803.90;;;-4.76;77.51
76229;BME280;65021;53.174;18.160;2024-01-10T03:44:42;102801.47;;;-4.75;77.20
76229;BME280;65021;53.174;18.160;2024-01-10T03:47:08;102802.21;;;-4.73;77.39
76229;BME280;65021;53.174;18.160;2024-01-10T03:49:35;102805.48;;;-4.71;77.50
76229;BME280;65021;53.174;18.160;2024-01-10T03:52:01;102802.11;;;-4.69;77.48
76229;BME280;65021;53.174;18.160;2024-01-10T03:54:28;102797.05;;;-4.66;77.44
76229;BME280;65021;53.174;18.160;2024-01-10T03:56:54;102796.41;;;-4.64;77.28
76229;BME280;65021;53.174;18.160;2024-01-10T03:59:21;102793.52;;;-4.61;77.50
76229;BME280;65021;53.174;18.160;2024-01-10T04:01:48;102794.52;;;-4.58;77.46
76229;BME280;65021;53.174;18.160;2024-01-10T04:04:15;102792.20;;;-4.55;77.43
76229;BME280;65021;53.174;18.160;2024-01-10T04:06:41;102786.86;;;-4.53;77.27
76229;BME280;65021;53.174;18.160;2024-01-10T04:09:08;102788.02;;;-4.50;77.28
76229;BME280;65021;53.174;18.160;2024-01-10T04:11:36;102780.78;;;-4.48;77.35
76229;BME280;65021;53.174;18.160;2024-01-10T04:14:02;102779.65;;;-4.46;77.50
76229;BME280;65021;53.174;18.160;2024-01-10T04:16:30;102784.23;;;-4.43;77.56
76229;BME280;65021;53.174;18.160;2024-01-10T04:18:56;102785.45;;;-4.42;77.46
76229;BME280;65021;53.174;18.160;2024-01-10T04:21:23;102787.23;;;-4.38;77.53
76229;BME280;65021;53.174;18.160;2024-01-10T04:23:49;102784.23;;;-4.36;77.56
76229;BME280;65021;53.174;18.160;2024-01-10T04:26:18;102780.88;;;-4.33;77.42
76229;BME280;65021;53.174;18.160;2024-01-10T04:28:44;102778.98;;;-4.32;77.58
76229;BME280;65021;53.174;18.160;2024-01-10T04:31:11;102775.55;;;-4.32;77.78
76229;BME280;65021;53.174;18.160;2024-01-10T04:33:38;102769.73;;;-4.27;77.85
76229;BME280;65021;53.174;18.160;2024-01-10T04:36:04;102768.08;;;-4.22;77.88
76229;BME280;65021;53.174;18.160;2024-01-10T04:38:31;102772.80;;;-4.20;77.79
76229;BME280;65021;53.174;18.160;2024-01-10T04:40:58;102774.98;;;-4.17;78.05
76229;BME280;65021;53.174;18.160;2024-01-10T04:43:25;102770.67;;;-4.16;77.93
76229;BME280;65021;53.174;18.160;2024-01-10T04:45:51;102768.84;;;-4.13;77.98
76229;BME280;65021;53.174;18.160;2024-01-10T04:48:18;102767.10;;;-4.10;78.02
76229;BME280;65021;53.174;18.160;2024-01-10T04:50:44;102758.28;;;-4.09;77.83
76229;BME280;65021;53.174;18.160;2024-01-10T04:53:11;102760.49;;;-4.09;78.03
76229;BME280;65021;53.174;18.160;2024-01-10T04:55:37;102759.80;;;-4.09;77.96
76229;BME280;65021;53.174;18.160;2024-01-10T04:58:04;102759.84;;;-4.07;78.17
76229;BME280;65021;53.174;18.160;2024-01-10T05:00:30;102766.52;;;-4.06;78.29
76229;BME280;65021;53.174;18.160;2024-01-10T05:02:57;102768.46;;;-4.10;77.97
76229;BME280;65021;53.174;18.160;2024-01-10T05:05:24;102766.85;;;-4.14;77.96
76229;BME280;65021;53.174;18.160;2024-01-10T05:07:50;102766.16;;;-4.16;78.14
76229;BME280;65021;53.174;18.160;2024-01-10T05:10:17;102772.33;;;-4.15;77.89
76229;BME280;65021;53.174;18.160;2024-01-10T05:12:44;102776.36;;;-4.15;77.86
76229;BME280;65021;53.174;18.160;2024-01-10T05:15:10;102769.31;;;-4.15;77.91
76229;BME280;65021;53.174;18.160;2024-01-10T05:17:37;102769.85;;;-4.16;77.93
76229;BME280;65021;53.174;18.160;2024-01-10T05:20:04;102769.30;;;-4.18;77.99
76229;BME280;65021;53.174;18.160;2024-01-10T05:22:32;102769.77;;;-4.20;77.93
76229;BME280;65021;53.174;18.160;2024-01-10T05:24:58;102772.44;;;-4.22;78.23
76229;BME280;65021;53.174;18.160;2024-01-10T05:27:25;102769.52;;;-4.24;78.22
76229;BME280;65021;53.174;18.160;2024-01-10T05:29:51;102767.41;;;-4.25;78.12
76229;BME280;65021;53.174;18.160;2024-01-10T05:32:18;102764.27;;;-4.26;78.26
76229;BME280;65021;53.174;18.160;2024-01-10T05:34:44;102763.40;;;-4.28;78.31
76229;BME280;65021;53.174;18.160;2024-01-10T05:37:11;102761.83;;;-4.30;78.17
76229;BME280;65021;53.174;18.160;2024-01-10T05:39:37;102756.64;;;-4.30;78.32
76229;BME280;65021;53.174;18.160;2024-01-10T05:42:04;102756.89;;;-4.32;78.15
76229;BME280;65021;53.174;18.160;2024-01-10T05:44:32;102760.08;;;-4.34;78.20
76229;BME280;65021;53.174;18.160;2024-01-10T05:46:58;102763.73;;;-4.36;78.19
76229;BME280;65021;53.174;18.160;2024-01-10T05:49:26;102763.36;;;-4.36;78.47
76229;BME280;65021;53.174;18.160;2024-01-10T05:51:53;102762.91;;;-4.37;78.40
76229;BME280;65021;53.174;18.160;2024-01-10T05:54:19;102763.46;;;-4.37;78.38
76229;BME280;65021;53.174;18.160;2024-01-10T05:56:46;102762.65;;;-4.37;78.43
76229;BME280;65021;53.174;18.160;2024-01-10T05:59:13;102757.77;;;-4.37;78.53
76229;BME280;65021;53.174;18.160;2024-01-10T06:01:42;102759.44;;;-4.37;78.46
76229;BME280;65021;53.174;18.160;2024-01-10T06:04:09;102758.19;;;-4.36;78.61
76229;BME280;65021;53.174;18.160;2024-01-10T06:06:36;102756.56;;;-4.34;78.79
76229;BME280;65021;53.174;18.160;2024-01-10T06:09:02;102757.95;;;-4.35;78.72
76229;BME280;65021;53.174;18.160;2024-01-10T06:11:29;102757.02;;;-4.36;78.64
76229;BME280;65021;53.174;18.160;2024-01-10T06:13:55;102759.05;;;-4.36;78.53
76229;BME280;65021;53.174;18.160;2024-01-10T06:16:23;102762.86;;;-4.35;78.86
76229;BME280;65021;53.174;18.160;2024-01-10T06:18:50;102764.50;;;-4.35;78.87
76229;BME280;65021;53.174;18.160;2024-01-10T06:21:17;102765.94;;;-4.34;79.06
76229;BME280;65021;53.174;18.160;2024-01-10T06:23:44;102763.27;;;-4.31;78.87
76229;BME280;65021;53.174;18.160;2024-01-10T06:26:10;102764.66;;;-4.30;78.89
76229;BME280;65021;53.174;18.160;2024-01-10T06:28:37;102765.23;;;-4.28;78.90
76229;BME280;65021;53.174;18.160;2024-01-10T06:31:05;102766.34;;;-4.27;78.98
76229;BME280;65021;53.174;18.160;2024-01-10T06:33:31;102764.95;;;-4.26;79.09
76229;BME280;65021;53.174;18.160;2024-01-10T06:35:58;102759.41;;;-4.23;78.98
76229;BME280;65021;53.174;18.160;2024-01-10T06:38:25;102755.74;;;-4.22;79.10
76229;BME280;65021;53.174;18.160;2024-01-10T06:40:52;102753.87;;;-4.19;79.15
76229;BME280;65021;53.174;18.160;2024-01-10T06:43:19;102761.30;;;-4.17;79.14
76229;BME280;65021;53.174;18.160;2024-01-10T06:45:45;102757.66;;;-4.15;79.05
76229;BME280;65021;53.174;18.160;2024-01-10T06:48:12;102751.06;;;-4.14;79.06
76229;BME280;65021;53.174;18.160;2024-01-10T06:50:39;102748.68;;;-4.14;79.18
76229;BME280;65021;53.174;18.160;2024-01-10T06:53:06;102755.55;;;-4.13;79.14
76229;BME280;65021;53.174;18.160;2024-01-10T06:55:32;102758.92;;;-4.13;79.14
76229;BME280;65021;53.174;18.160;2024-01-10T06:57:59;102753.83;;;-4.13;79.36
76229;BME280;65021;53.174;18.160;2024-01-10T07:00:26;102748.77;;;-4.12;79.45
76229;BME280;65021;53.174;18.160;2024-01-10T07:02:52;102746.36;;;-4.12;79.61
76229;BME280;65021;53.174;18.160;2024-01-10T07:05:19;102747.59;;;-4.10;79.53
76229;BME280;65021;53.174;18.160;2024-01-10T07:07:46;102748.15;;;-4.08;79.56
76229;BME280;65021;53.174;18.160;2024-01-10T07:10:13;102745.84;;;-4.06;79.51
76229;BME280;65021;53.174;18.160;2024-01-10T07:12:39;102747.67;;;-4.04;79.73
76229;BME280;65021;53.174;18.160;2024-01-10T07:15:06;102747.00;;;-4.01;79.62
76229;BME280;65021;53.174;18.160;2024-01-10T07:17:33;102744.17;;;-3.99;79.79
76229;BME280;65021;53.174;18.160;2024-01-10T07:20:00;102742.48;;;-3.97;79.69
76229;BME280;65021;53.174;18.160;2024-01-10T07:22:27;102747.37;;;-3.94;79.71
76229;BME280;65021;53.174;18.160;2024-01-10T07:24:53;102748.59;;;-3.92;79.72
76229;BME280;65021;53.174;18.160;2024-01-10T07:27:20;102752.92;;;-3.89;79.70
76229;BME280;65021;53.174;18.160;2024-01-10T07:29:47;102754.38;;;-3.86;79.69
76229;BME280;65021;53.174;18.160;2024-01-10T07:32:13;102758.56;;;-3.83;79.59
76229;BME280;65021;53.174;18.160;2024-01-10T07:34:40;102758.81;;;-3.79;79.72
76229;BME280;65021;53.174;18.160;2024-01-10T07:37:07;102756.93;;;-3.76;79.67
76229;BME280;65021;53.174;18.160;2024-01-10T07:39:35;102755.77;;;-3.74;79.70
76229;BME280;65021;53.174;18.160;2024-01-10T07:42:02;102752.26;;;-3.71;79.79
76229;BME280;65021;53.174;18.160;2024-01-10T07:44:29;102754.21;;;-3.68;79.74
76229;BME280;65021;53.174;18.160;2024-01-10T07:46:55;102755.61;;;-3.64;79.75
76229;BME280;65021;53.174;18.160;2024-01-10T07:49:22;102756.41;;;-3.61;79.98
76229;BME280;65021;53.174;18.160;2024-01-10T07:51:50;102763.27;;;-3.57;79.80
76229;BME280;65021;53.174;18.160;2024-01-10T07:54:17;102766.34;;;-3.53;79.72
76229;BME280;65021;53.174;18.160;2024-01-10T07:56:45;102767.70;;;-3.50;79.72
76229;BME280;65021;53.174;18.160;2024-01-10T07:59:12;102765.48;;;-3.47;79.58
76229;BME280;65021;53.174;18.160;2024-01-10T08:01:54;102759.51;;;-3.44;79.85
76229;BME280;65021;53.174;18.160;2024-01-10T08:04:22;102768.45;;;-3.41;79.69
76229;BME280;65021;53.174;18.160;2024-01-10T08:06:49;102771.36;;;-3.40;79.72
76229;BME280;65021;53.174;18.160;2024-01-10T08:09:16;102772.96;;;-3.36;79.94
76229;BME280;65021;53.174;18.160;2024-01-10T08:11:42;102773.27;;;-3.33;79.69
76229;BME280;65021;53.174;18.160;2024-01-10T08:14:09;102778.21;;;-3.32;80.00
76229;BME280;65021;53.174;18.160;2024-01-10T08:16:36;102773.29;;;-3.28;79.82
76229;BME280;65021;53.174;18.160;2024-01-10T08:19:02;102769.59;;;-3.26;79.84
76229;BME280;65021;53.174;18.160;2024-01-10T08:21:29;102769.17;;;-3.23;80.01
76229;BME280;65021;53.174;18.160;2024-01-10T08:23:55;102770.01;;;-3.18;79.90
76229;BME280;65021;53.174;18.160;2024-01-10T08:26:22;102769.17;;;-3.12;79.99
76229;BME280;65021;53.174;18.160;2024-01-10T08:28:49;102771.96;;;-3.06;79.85
76229;BME280;65021;53.174;18.160;2024-01-10T08:31:18;102780.77;;;-3.00;79.79
76229;BME280;65021;53.174;18.160;2024-01-10T08:33:45;102779.27;;;-2.95;79.98
76229;BME280;65021;53.174;18.160;2024-01-10T08:36:13;102782.95;;;-2.92;79.76
76229;BME280;65021;53.174;18.160;2024-01-10T08:38:41;102783.67;;;-2.88;79.73
76229;BME280;65021;53.174;18.160;2024-01-10T08:41:08;102786.20;;;-2.81;79.76
76229;BME280;65021;53.174;18.160;2024-01-10T08:43:38;102791.50;;;-2.75;79.71
76229;BME280;65021;53.174;18.160;2024-01-10T08:46:04;102790.09;;;-2.69;79.58
76229;BME280;65021;53.174;18.160;2024-01-10T08:48:31;102788.53;;;-2.64;79.45
76229;BME280;65021;53.174;18.160;2024-01-10T08:50:58;102789.77;;;-2.57;79.51
76229;BME280;65021;53.174;18.160;2024-01-10T08:53:24;102793.34;;;-2.53;79.45
76229;BME280;65021;53.174;18.160;2024-01-10T08:55:51;102794.38;;;-2.48;79.44
76229;BME280;65021;53.174;18.160;2024-01-10T08:58:17;102792.86;;;-2.44;79.43
76229;BME280;65021;53.174;18.160;2024-01-10T09:00:44;102794.89;;;-2.39;79.37
76229;BME280;65021;53.174;18.160;2024-01-10T09:03:10;102790.06;;;-2.40;79.45
76229;BME280;65021;53.174;18.160;2024-01-10T09:05:37;102789.09;;;-2.38;79.48
76229;BME280;65021;53.174;18.160;2024-01-10T09:08:04;102788.02;;;-2.35;79.37
76229;BME280;65021;53.174;18.160;2024-01-10T09:10:31;102785.45;;;-2.32;79.40
76229;BME280;65021;53.174;18.160;2024-01-10T09:13:01;102783.70;;;-2.29;79.35
76229;BME280;65021;53.174;18.160;2024-01-10T09:15:27;102785.15;;;-2.25;79.28
76229;BME280;65021;53.174;18.160;2024-01-10T09:17:54;102777.53;;;-2.23;79.24
76229;BME280;65021;53.174;18.160;2024-01-10T09:20:20;102771.36;;;-2.22;79.12
76229;BME280;65021;53.174;18.160;2024-01-10T09:22:47;102765.80;;;-2.19;79.12
76229;BME280;65021;53.174;18.160;2024-01-10T09:25:15;102769.09;;;-2.16;79.17
76229;BME280;65021;53.174;18.160;2024-01-10T09:27:42;102767.62;;;-2.12;79.27
76229;BME280;65021;53.174;18.160;2024-01-10T09:30:11;102765.62;;;-2.08;79.01
76229;BME280;65021;53.174;18.160;2024-01-10T09:32:39;102761.51;;;-2.02;79.13
76229;BME280;65021;53.174;18.160;2024-01-10T09:35:06;102757.41;;;-1.99;78.92
76229;BME280;65021;53.174;18.160;2024-01-10T09:37:32;102751.80;;;-1.97;78.92
76229;BME280;65021;53.174;18.160;2024-01-10T09:40:00;102747.73;;;-1.92;78.93
76229;BME280;65021;53.174;18.160;2024-01-10T09:42:27;102740.64;;;-1.90;78.87
76229;BME280;65021;53.174;18.160;2024-01-10T09:44:58;102733.89;;;-1.90;78.75
76229;BME280;65021;53.174;18.160;2024-01-10T09:47:25;102735.15;;;-1.86;78.70
76229;BME280;65021;53.174;18.160;2024-01-10T09:49:52;102727.13;;;-1.85;78.68
76229;BME280;65021;53.174;18.160;2024-01-10T09:52:26;102725.23;;;-1.80;78.84
76229;BME280;65021;53.174;18.160;2024-01-10T09:54:55;102728.18;;;-1.77;78.64
76229;BME280;65021;53.174;18.160;2024-01-10T09:57:25;102729.33;;;-1.76;78.54
76229;BME280;65021;53.174;18.160;2024-01-10T09:59:52;102728.55;;;-1.79;78.50
76229;BME280;65021;53.174;18.160;2024-01-10T10:02:19;102726.61;;;-1.83;78.36
76229;BME280;65021;53.174;18.160;2024-01-10T10:05:09;102726.34;;;-1.79;78.45
76229;BME280;65021;53.174;18.160;2024-01-10T10:07:44;102730.30;;;-1.71;78.53
76229;BME280;65021;53.174;18.160;2024-01-10T10:10:10;102730.73;;;-1.70;78.42
76229;BME280;65021;53.174;18.160;2024-01-10T10:12:46;102734.03;;;-1.67;78.38
76229;BME280;65021;53.174;18.160;2024-01-10T10:15:15;102730.71;;;-1.63;78.46
76229;BME280;65021;53.174;18.160;2024-01-10T10:17:48;102732.10;;;-1.59;78.42
76229;BME280;65021;53.174;18.160;2024-01-10T10:20:23;102736.13;;;-1.54;78.33
76229;BME280;65021;53.174;18.160;2024-01-10T10:23:04;102734.07;;;-1.50;78.27
76229;BME280;65021;53.174;18.160;2024-01-10T10:25:36;102738.23;;;-1.44;78.27
76229;BME280;65021;53.174;18.160;2024-01-10T10:28:04;102737.63;;;-1.45;78.20
76229;BME280;65021;53.174;18.160;2024-01-10T10:30:32;102738.94;;;-1.47;78.18
76229;BME280;65021;53.174;18.160;2024-01-10T10:33:03;102742.81;;;-1.49;78.12
76229;BME280;65021;53.174;18.160;2024-01-10T10:35:30;102737.04;;;-1.53;78.19
76229;BME280;65021;53.174;18.160;2024-01-10T10:37:58;102733.58;;;-1.56;78.07
76229;BME280;65021;53.174;18.160;2024-01-10T10:40:24;102740.10;;;-1.56;78.16
76229;BME280;65021;53.174;18.160;2024-01-10T10:42:55;102741.55;;;-1.55;78.22
76229;BME280;65021;53.174;18.160;2024-01-10T10:45:23;102735.86;;;-1.55;78.19
76229;BME280;65021;53.174;18.160;2024-01-10T10:47:57;102733.92;;;-1.57;78.26
76229;BME280;65021;53.174;18.160;2024-01-10T10:50:28;102730.19;;;-1.61;78.37
76229;BME280;65021;53.174;18.160;2024-01-10T10:52:55;102725.82;;;-1.65;78.37
76229;BME280;65021;53.174;18.160;2024-01-10T10:55:24;102728.05;;;-1.68;78.38
76229;BME280;65021;53.174;18.160;2024-01-10T10:57:53;102724.34;;;-1.69;78.43
76229;BME280;65021;53.174;18.160;2024-01-10T11:00:21;102721.01;;;-1.69;78.36
76229;BME280;65021;53.174;18.160;2024-01-10T11:02:54;102725.06;;;-1.69;78.51
76229;BME280;65021;53.174;18.160;2024-01-10T11:05:22;102717.95;;;-1.67;78.58
76229;BME280;65021;53.174;18.160;2024-01-10T11:07:49;102714.42;;;-1.62;78.43
76229;BME280;65021;53.174;18.160;2024-01-10T11:10:26;102709.91;;;-1.61;78.62
76229;BME280;65021;53.174;18.160;2024-01-10T11:23:59;102700.38;;;-1.49;78.39
76229;BME280;65021;53.174;18.160;2024-01-10T11:26:27;102703.35;;;-1.48;78.44
76229;BME280;65021;53.174;18.160;2024-01-10T11:28:56;102700.83;;;-1.52;78.47
76229;BME280;65021;53.174;18.160;2024-01-10T11:31:27;102704.41;;;-1.59;78.41
76229;BME280;65021;53.174;18.160;2024-01-10T11:33:56;102705.01;;;-1.65;78.55
76229;BME280;65021;53.174;18.160;2024-01-10T11:36:23;102704.15;;;-1.65;78.70
76229;BME280;65021;53.174;18.160;2024-01-10T11:38:57;102698.62;;;-1.66;78.52
76229;BME280;65021;53.174;18.160;2024-01-10T11:41:27;102695.05;;;-1.65;78.79
76229;BME280;65021;53.174;18.160;2024-01-10T11:46:49;102686.21;;;-1.71;78.88
76229;BME280;65021;53.174;18.160;2024-01-10T11:49:18;102688.75;;;-1.71;78.95
76229;BME280;65021;53.174;18.160;2024-01-10T11:51:52;102682.30;;;-1.69;78.95
76229;BME280;65021;53.174;18.160;2024-01-10T11:59:44;102687.28;;;-1.61;78.78
76229;BME280;65021;53.174;18.160;2024-01-10T12:02:14;102686.73;;;-1.63;78.75
76229;BME280;65021;53.174;18.160;2024-01-10T12:04:42;102682.31;;;-1.62;79.02
76229;BME280;65021;53.174;18.160;2024-01-10T12:07:09;102686.55;;;-1.64;78.93
76229;BME280;65021;53.174;18.160;2024-01-10T12:09:36;102676.35;;;-1.73;78.99
76229;BME280;65021;53.174;18.160;2024-01-10T12:12:03;102674.12;;;-1.74;79.11
76229;BME280;65021;53.174;18.160;2024-01-10T12:14:30;102677.58;;;-1.75;79.09
76229;BME280;65021;53.174;18.160;2024-01-10T12:17:00;102676.95;;;-1.76;79.09
76229;BME280;65021;53.174;18.160;2024-01-10T12:19:27;102676.33;;;-1.79;79.21
76229;BME280;65021;53.174;18.160;2024-01-10T12:21:54;102680.93;;;-1.84;79.10
76229;BME280;65021;53.174;18.160;2024-01-10T12:24:20;102672.59;;;-1.83;79.26
76229;BME280;65021;53.174;18.160;2024-01-10T12:26:49;102671.06;;;-1.83;79.49
76229;BME280;65021;53.174;18.160;2024-01-10T12:29:19;102677.42;;;-1.82;79.36
76229;BME280;65021;53.174;18.160;2024-01-10T12:31:49;102673.02;;;-1.82;79.23
76229;BME280;65021;53.174;18.160;2024-01-10T12:34:16;102669.16;;;-1.83;79.31
76229;BME280;65021;53.174;18.160;2024-01-10T12:36:43;102668.83;;;-1.85;79.50
76229;BME280;65021;53.174;18.160;2024-01-10T12:39:11;102667.25;;;-1.86;79.43
76229;BME280;65021;53.174;18.160;2024-01-10T12:41:40;102666.67;;;-1.85;79.35
76229;BME280;65021;53.174;18.160;2024-01-10T12:44:07;102663.39;;;-1.85;79.30
76229;BME280;65021;53.174;18.160;2024-01-10T12:46:34;102663.79;;;-1.87;79.40
76229;BME280;65021;53.174;18.160;2024-01-10T12:51:32;102658.00;;;-1.89;79.38
76229;BME280;65021;53.174;18.160;2024-01-10T12:54:00;102660.57;;;-1.89;79.41
76229;BME280;65021;53.174;18.160;2024-01-10T12:56:27;102660.71;;;-1.89;79.26
76229;BME280;65021;53.174;18.160;2024-01-10T12:58:54;102655.75;;;-1.86;79.31
76229;BME280;65021;53.174;18.160;2024-01-10T13:01:25;102645.64;;;-1.87;79.24
76229;BME280;65021;53.174;18.160;2024-01-10T13:03:52;102642.48;;;-1.87;79.24